| time (UTC) | temp C | wind direction | speed KPH | gust KPH | rain 1hr cm | rain 24hr cm | rain mn cm | humidity % | barometer mb |
| 20260906193103 | 17 | 132 | 1.6 | 17.7 | 7.92 | 9.02 | 9.02 | 95 | 1019.4 |
| 20260906191608 | 17 | 218 | 11.3 | 25.7 | 8.05 | 8.10 | 8.10 | 95 | 1019.8 |
| 20260906190106 | 17 | 103 | 16.1 | 33.8 | 5.94 | 5.94 | 5.94 | 94 | 1018.5 |
| 20260906184604 | 19 | 107 | 17.7 | 32.2 | 2.59 | 2.59 | 2.59 | 93 | 1018.5 |
| 20260906183107 | 21 | 154 | 11.3 | 27.4 | 1.09 | 1.09 | 1.09 | 90 | 1018.3 |
| 20260906181613 | 24 | 125 | 11.3 | 22.5 | 0.05 | 0.05 | 0.05 | 87 | 1017.6 |
| 20260906180110 | 25 | 99 | 1.6 | 12.9 | 0.00 | 0.00 | 0.00 | 87 | 1017.3 |
| 20260906174609 | 26 | 88 | 1.6 | 6.4 | 0.00 | 0.00 | 0.00 | 85 | 1017.7 |
| 20260906173113 | 26 | 162 | 3.2 | 9.7 | 0.00 | 0.00 | 0.00 | 84 | 1017.8 |
| 20260906171609 | 26 | 189 | 1.6 | 9.7 | 0.00 | 0.00 | 0.00 | 85 | 1017.6 |
| 20260906170111 | 26 | 128 | 4.8 | 11.3 | 0.00 | 0.00 | 0.00 | 88 | 1017.3 |
| 20260906164616 | 25 | 0 | 4.8 | 9.7 | 0.00 | 0.00 | 0.00 | 90 | 1017.6 |
| 20260906163110 | 25 | 171 | 6.4 | 12.9 | 0.00 | 0.00 | 0.00 | 90 | 1017.3 |
| 20260906161605 | 25 | 125 | 1.6 | 8.0 | 0.00 | 0.00 | 0.00 | 91 | 1016.9 |
| 20260906160105 | 25 | 124 | 1.6 | 8.0 | 0.00 | 0.00 | 0.00 | 92 | 1016.9 |
| 20260906154609 | 24 | 204 | 1.6 | 12.9 | 0.00 | 0.00 | 0.00 | 92 | 1017.1 |
| 20260906153102 | 24 | 189 | 4.8 | 12.9 | 0.00 | 0.00 | 0.00 | 91 | 1016.9 |
| 20260906151607 | 24 | 128 | 1.6 | 8.0 | 0.00 | 0.00 | 0.00 | 91 | 1017.1 |
| 20260906150107 | 24 | 138 | 1.6 | 8.0 | 0.00 | 0.00 | 0.00 | 92 | 1017.1 |
| 20260906144604 | 24 | 142 | 1.6 | 4.8 | 0.00 | 0.00 | 0.00 | 92 | 1017.0 |
| 20260906143114 | 24 | 134 | 1.6 | 6.4 | 0.00 | 0.00 | 0.00 | 92 | 1016.7 |
| 20260906141603 | 24 | 133 | 1.6 | 9.7 | 0.00 | 0.00 | 0.00 | 93 | 1016.7 |
| 20260906140106 | 23 | 118 | 3.2 | 11.3 | 0.00 | 0.00 | 0.00 | 93 | 1016.6 |
| 20260906134604 | 23 | 84 | 1.6 | 8.0 | 0.00 | 0.00 | 0.00 | 93 | 1016.7 |
| 20260906133106 | 23 | 169 | 0.0 | 4.8 | 0.00 | 0.00 | 0.00 | 94 | 1016.8 |
| 20260906131609 | 23 | 0 | 0.0 | 4.8 | 0.00 | 0.00 | 0.00 | 94 | 1016.9 |
| 20260906130104 | 23 | 115 | 0.0 | 6.4 | 0.00 | 0.00 | 0.00 | 94 | 1016.9 |
| 20260906124612 | 23 | 0 | 1.6 | 9.7 | 0.00 | 0.20 | 0.00 | 94 | 1016.8 |
| 20260906123105 | 23 | 106 | 0.0 | 8.0 | 0.00 | 0.20 | 0.00 | 94 | 1016.6 |
| 20260906121606 | 23 | 0 | 0.0 | 9.7 | 0.00 | 0.20 | 0.00 | 94 | 1016.3 |
| 20260906120115 | 22 | 119 | 0.0 | 8.0 | 0.00 | 0.20 | 0.00 | 94 | 1016.0 |
| 20260906114610 | 22 | 146 | 1.6 | 9.7 | 0.00 | 0.51 | 0.00 | 94 | 1015.9 |
| 20260906113104 | 22 | 122 | 0.0 | 8.0 | 0.00 | 0.51 | 0.00 | 94 | 1016.0 |
| 20260906111621 | 22 | 116 | 1.6 | 6.4 | 0.00 | 0.51 | 0.00 | 94 | 1015.9 |
| 20260906110104 | 22 | 121 | 1.6 | 11.3 | 0.00 | 0.51 | 0.00 | 94 | 1015.8 |
| 20260906104607 | 22 | 122 | 1.6 | 8.0 | 0.00 | 0.56 | 0.00 | 94 | 1015.9 |
| 20260906103105 | 22 | 110 | 1.6 | 6.4 | 0.00 | 0.56 | 0.00 | 94 | 1015.7 |
| 20260906101604 | 22 | 101 | 0.0 | 8.0 | 0.00 | 0.56 | 0.00 | 94 | 1015.9 |
| 20260906100108 | 22 | 98 | 1.6 | 8.0 | 0.00 | 0.56 | 0.00 | 94 | 1015.9 |
| 20260906094605 | 22 | 82 | 1.6 | 6.4 | 0.00 | 0.56 | 0.00 | 94 | 1015.9 |
| 20260906093105 | 22 | 97 | 0.0 | 4.8 | 0.00 | 0.56 | 0.00 | 94 | 1016.0 |
| 20260906091615 | 22 | 0 | 0.0 | 3.2 | 0.00 | 0.56 | 0.00 | 94 | 1016.1 |
| 20260906090124 | 22 | 0 | 0.0 | 1.6 | 0.00 | 0.56 | 0.00 | 93 | 1016.2 |
| 20260906084604 | 22 | 0 | 0.0 | 6.4 | 0.00 | 0.56 | 0.00 | 93 | 1016.0 |
| 20260906083104 | 22 | 125 | 0.0 | 6.4 | 0.00 | 0.56 | 0.00 | 93 | 1015.5 |
| 20260906081605 | 22 | 102 | 1.6 | 8.0 | 0.00 | 0.56 | 0.00 | 93 | 1015.3 |
| 20260906080111 | 22 | 0 | 0.0 | 8.0 | 0.00 | 0.56 | 0.00 | 93 | 1015.2 |
| 20260906074610 | 22 | 141 | 1.6 | 8.0 | 0.00 | 0.56 | 0.00 | 93 | 1015.3 |
| 20260906073105 | 22 | 128 | 1.6 | 8.0 | 0.00 | 0.56 | 0.00 | 93 | 1015.4 |
| 20260906071608 | 22 | 0 | 0.0 | 11.3 | 0.00 | 0.56 | 0.00 | 93 | 1015.7 |
| 20260906070110 | 22 | 84 | 1.6 | 8.0 | 0.00 | 0.56 | 0.00 | 93 | 1015.7 |
| 20260906064603 | 22 | 105 | 0.0 | 9.7 | 0.00 | 0.56 | 0.00 | 93 | 1015.8 |
| 20260906063103 | 22 | 0 | 1.6 | 11.3 | 0.00 | 0.56 | 0.00 | 93 | 1015.9 |
| 20260906061609 | 21 | 0 | 0.0 | 1.6 | 0.00 | 0.56 | 0.00 | 92 | 1016.1 |
| 20260906060111 | 21 | 0 | 0.0 | 3.2 | 0.00 | 0.56 | 0.00 | 92 | 1016.0 |
| 20260906054609 | 21 | 86 | 0.0 | 4.8 | 0.00 | 0.56 | 0.00 | 92 | 1016.0 |
| 20260906053105 | 21 | 0 | 0.0 | 1.6 | 0.00 | 0.56 | 0.00 | 92 | 1016.1 |
| 20260906051609 | 21 | 0 | 0.0 | 1.6 | 0.00 | 0.56 | 0.00 | 91 | 1016.2 |
| 20260906050108 | 21 | 113 | 0.0 | 3.2 | 0.00 | 0.56 | 0.00 | 91 | 1016.1 |
| 20260906044605 | 21 | 117 | 0.0 | 3.2 | 0.00 | 0.56 | 0.56 | 91 | 1016.0 |
| 20260906043106 | 21 | 0 | 0.0 | 6.4 | 0.00 | 0.56 | 0.56 | 91 | 1016.0 |
| 20260906041619 | 21 | 0 | 0.0 | 1.6 | 0.00 | 0.56 | 0.56 | 90 | 1016.1 |
| 20260906040120 | 21 | 0 | 0.0 | 4.8 | 0.00 | 0.56 | 0.56 | 90 | 1016.2 |
| 20260906034606 | 22 | 0 | 0.0 | 4.8 | 0.00 | 0.56 | 0.56 | 89 | 1016.1 |
| 20260906033108 | 22 | 0 | 0.0 | 6.4 | 0.00 | 0.56 | 0.56 | 89 | 1015.9 |
| 20260906031611 | 22 | 105 | 0.0 | 3.2 | 0.00 | 0.56 | 0.56 | 88 | 1016.0 |
| 20260906030120 | 22 | 129 | 0.0 | 3.2 | 0.00 | 0.56 | 0.56 | 87 | 1015.9 |
| 20260906024630 | 22 | 96 | 0.0 | 8.0 | 0.00 | 0.56 | 0.56 | 85 | 1015.8 |
| 20260906023105 | 23 | 129 | 1.6 | 6.4 | 0.00 | 0.56 | 0.56 | 84 | 1015.7 |
| 20260906021612 | 23 | 113 | 1.6 | 11.3 | 0.00 | 0.56 | 0.56 | 83 | 1015.7 |
| 20260906020112 | 23 | 136 | 1.6 | 11.3 | 0.00 | 0.56 | 0.56 | 82 | 1015.4 |
| 20260906014612 | 23 | 0 | 1.6 | 6.4 | 0.00 | 0.56 | 0.56 | 81 | 1015.4 |
| 20260906013104 | 23 | 0 | 1.6 | 14.5 | 0.00 | 0.56 | 0.56 | 78 | 1015.4 |
| 20260906011602 | 24 | 110 | 1.6 | 9.7 | 0.00 | 0.56 | 0.56 | 76 | 1015.4 |
| 20260906010120 | 25 | 103 | 1.6 | 9.7 | 0.00 | 0.56 | 0.56 | 74 | 1015.3 |
| 20260906004610 | 26 | 0 | 0.0 | 6.4 | 0.00 | 0.56 | 0.56 | 71 | 1015.3 |
| 20260906003121 | 27 | 112 | 0.0 | 12.9 | 0.00 | 0.56 | 0.56 | 68 | 1015.2 |
| 20260906001615 | 27 | 106 | 1.6 | 12.9 | 0.00 | 0.56 | 0.56 | 65 | 1015.0 |
| 20260906000109 | 28 | 120 | 4.8 | 17.7 | 0.00 | 0.56 | 0.56 | 62 | 1014.7 |
| 20260905234609 | 29 | 148 | 3.2 | 12.9 | 0.00 | 0.56 | 0.56 | 59 | 1014.5 |
| 20260905233105 | 30 | 107 | 3.2 | 16.1 | 0.00 | 0.56 | 0.56 | 57 | 1014.5 |
| 20260905231605 | 30 | 113 | 6.4 | 14.5 | 0.00 | 0.56 | 0.56 | 55 | 1014.2 |
| 20260905230111 | 31 | 160 | 3.2 | 14.5 | 0.00 | 0.56 | 0.56 | 51 | 1014.3 |
| 20260905224604 | 31 | 153 | 4.8 | 12.9 | 0.00 | 0.56 | 0.56 | 50 | 1014.1 |
| 20260905223106 | 31 | 137 | 3.2 | 9.7 | 0.00 | 0.56 | 0.56 | 52 | 1014.3 |
| 20260905221606 | 31 | 126 | 3.2 | 11.3 | 0.00 | 0.56 | 0.56 | 49 | 1014.3 |
| 20260905220109 | 31 | 151 | 4.8 | 17.7 | 0.00 | 0.56 | 0.56 | 49 | 1014.2 |
| 20260905214606 | 31 | 151 | 4.8 | 12.9 | 0.00 | 0.56 | 0.56 | 51 | 1014.2 |
| 20260905213107 | 31 | 190 | 4.8 | 16.1 | 0.00 | 0.56 | 0.56 | 50 | 1013.9 |
| 20260905211607 | 31 | 123 | 6.4 | 17.7 | 0.00 | 0.56 | 0.56 | 50 | 1014.0 |
| 20260905210108 | 30 | 122 | 6.4 | 16.1 | 0.00 | 0.56 | 0.56 | 50 | 1014.1 |
| 20260905204613 | 30 | 103 | 8.0 | 16.1 | 0.00 | 0.56 | 0.56 | 51 | 1013.9 |
| 20260905203103 | 30 | 140 | 6.4 | 17.7 | 0.00 | 0.56 | 0.56 | 52 | 1014.0 |
| 20260905201606 | 30 | 125 | 4.8 | 14.5 | 0.00 | 0.56 | 0.56 | 55 | 1014.0 |
| 20260905200109 | 30 | 122 | 6.4 | 14.5 | 0.00 | 0.56 | 0.56 | 54 | 1014.1 |
| 20260905194606 | 29 | 137 | 4.8 | 16.1 | 0.00 | 0.56 | 0.56 | 56 | 1014.1 |